Overview Statistics Trail Chart Weather Telemetry Raw packets
 

This is the latest recevied weather packets stored in our database for station/object N3FKR. If no packets are shown the sender has not sent any weather packets the latest 10 day(s).

<< 1 2 3 4 5 6 7 >>
Time Temp. Humidity Pressure Rain* Wind** Luminosity Snow
1788554741 30° C 64% 1013.7 hPa 0 mm - 183 W/m² -
1788554436 30.56° C 61% 1013.9 hPa 0 mm - 157 W/m² -
1788554132 31.11° C 59% 1013.5 hPa 0 mm - 456 W/m² -
1788553829 30.56° C 60% 1013.9 hPa 0 mm - 426 W/m² -
1788553524 30.56° C 62% 1014 hPa 0 mm - 401 W/m² -
1788553221 30.56° C 61% 1013.9 hPa 0 mm - 475 W/m² -
1788552915 31.11° C 62% 1013.9 hPa 0 mm - 488 W/m² -
1788552611 30.56° C 63% 1014.1 hPa 0 mm - 551 W/m² -
1788552309 30.56° C 63% 1014.3 hPa 0 mm - 239 W/m² -
1788552004 30.56° C 63% 1014.1 hPa 0 mm - 548 W/m² -
1788551702 29.44° C 67% 1014.3 hPa 0 mm - 215 W/m² -
1788551401 29.44° C 67% 1014.4 hPa 0 mm - 223 W/m² -
1788551097 29.44° C 67% 1014.5 hPa 0 mm - 224 W/m² -
1788550792 30° C 65% 1014.5 hPa 0 mm - 248 W/m² -
1788550487 30° C 64% 1014.6 hPa 0 mm - 234 W/m² -
1788550182 30.56° C 61% 1014.6 hPa 0 mm - 615 W/m² -
1788549877 32.22° C 60% 1014.5 hPa 0 mm - 614 W/m² -
1788549573 30.56° C 62% 1014.5 hPa 0 mm - 615 W/m² -
1788549270 30.56° C 63% 1014.7 hPa 0 mm - 617 W/m² -
1788548967 30.56° C 62% 1014.7 hPa 0 mm - 627 W/m² -
1788548666 31.11° C 64% 1014.9 hPa 0 mm - 665 W/m² -
1788548363 30.56° C 64% 1014.9 hPa 0 mm - 737 W/m² -
1788548059 30.56° C 64% 1015 hPa 0 mm - 683 W/m² -
1788547753 30.56° C 64% 1015 hPa 0 mm - 711 W/m² -
1788547448 31.11° C 61% 1015.1 hPa 0 mm - 775 W/m² -

* Rain latest hour (hover to see other rain measurements)
** Current wind speed in m/s (hover to see current wind gust speed)